Terminal Aerodrome Forecast
Issued by NWS Melbourne, FL

Current Version | Previous Version | Text Only | Print | Product List | Glossary On
Versions: 1 2 3 4 5 6 7 8 9 10 11 12 13 14 15 16 17 18 19 20 21 22 23 24 25
000
FTUS42 KMLB 262040 AAB
TAFMLB
TAF AMD
KMLB 262040Z 2621/2718 19011KT P6SM VCTS SCT035CB BKN060 BKN250
      TEMPO 2621/2623 22022KT 3SM TSRA BKN030CB BKN060
     FM270000 19004KT P6SM VCSH SCT040 OVC080
     FM270500 22008KT P6SM SCT030 OVC100
     FM271400 22014G20KT P6SM VCSH SCT025 BKN060=

USA.gov is the U.S. government's official web portal to all federal, state and local government web resources and services.